Time;durP1;ratioP1;P1;durP2;ratioP2;P2;SDS_P1;SDS_P2;PMS_P1;PMS_P2;Temp;Humidity;BMP_temperature;BMP_pressure;BME280_temperature;BME280_humidity;BME280_pressure;Samples;Min_cycle;Max_cycle;Signal;HPM_P1;HPM_P2
2023/01/19 00:02:20;;;;;;;12.10;5.80;;;-3.20;99.90;;;;;;5028053;28;20448;-74
2023/01/19 00:04:45;;;;;;;12.13;6.37;;;-3.20;99.90;;;;;;5031283;28;20183;-74
2023/01/19 00:07:11;;;;;;;11.13;5.83;;;-3.20;99.90;;;;;;5003775;28;20211;-74
2023/01/19 00:09:45;;;;;;;11.80;6.40;;;-3.20;99.90;;;;;;5018405;28;20275;-74
2023/01/19 00:12:10;;;;;;;13.33;6.20;;;-3.20;99.90;;;;;;5000765;28;20207;-74
2023/01/19 00:14:36;;;;;;;18.60;6.47;;;-3.20;99.90;;;;;;5007693;28;20422;-74
2023/01/19 00:17:02;;;;;;;13.77;6.47;;;-3.20;99.90;;;;;;5006022;28;20187;-74
2023/01/19 00:19:28;;;;;;;20.53;6.50;;;-3.20;99.90;;;;;;5007228;28;20179;-74
2023/01/19 00:21:54;;;;;;;7.53;4.43;;;-3.30;99.90;;;;;;5006691;28;20199;-74
2023/01/19 00:24:20;;;;;;;8.73;4.93;;;-3.30;99.90;;;;;;5008839;28;20432;-74
2023/01/19 00:26:46;;;;;;;10.60;5.70;;;-3.30;99.90;;;;;;5011322;28;20429;-74
2023/01/19 00:29:12;;;;;;;15.73;6.17;;;-3.30;99.90;;;;;;5004230;28;20183;-74
2023/01/19 00:31:38;;;;;;;14.20;5.83;;;-3.30;99.90;;;;;;5004342;28;20605;-74
2023/01/19 00:34:05;;;;;;;10.40;5.30;;;-3.40;99.90;;;;;;4991814;28;20946;-74
2023/01/19 00:36:31;;;;;;;11.23;5.70;;;-3.40;99.90;;;;;;4991791;28;20180;-75
2023/01/19 00:38:56;;;;;;;18.00;5.77;;;-3.40;99.90;;;;;;4999356;28;20438;-74
2023/01/19 00:42:38;;;;;;;14.37;5.80;;;-3.50;99.90;;;;;;5007906;28;20422;-74
2023/01/19 00:44:10;;;;;;;12.90;5.70;;;-3.50;99.90;;;;;;5011464;28;20568;-74
2023/01/19 00:46:35;;;;;;;6.60;4.70;;;-3.50;99.90;;;;;;5018546;28;20487;-74
2023/01/19 00:49:01;;;;;;;9.33;5.17;;;-3.50;99.90;;;;;;5025343;28;20449;-75
2023/01/19 00:51:27;;;;;;;16.67;6.00;;;-3.50;99.90;;;;;;5021055;28;20190;-74
2023/01/19 00:53:52;;;;;;;10.10;5.30;;;-3.50;99.90;;;;;;5021036;28;20228;-74
2023/01/19 00:56:18;;;;;;;14.30;4.70;;;-3.60;99.90;;;;;;5015185;28;20188;-74
2023/01/19 00:58:46;;;;;;;12.73;5.40;;;-3.50;99.90;;;;;;5008558;28;20183;-74
2023/01/19 01:01:12;;;;;;;8.37;5.17;;;-3.50;99.90;;;;;;5022539;28;20181;-74
2023/01/19 01:03:38;;;;;;;10.93;5.27;;;-3.50;99.90;;;;;;5025339;28;20532;-74
2023/01/19 01:06:07;;;;;;;15.30;6.23;;;-3.60;99.90;;;;;;5018821;28;20497;-74
2023/01/19 01:08:33;;;;;;;18.20;5.87;;;-3.50;99.90;;;;;;5026457;28;20511;-74
2023/01/19 01:10:58;;;;;;;12.97;6.10;;;-3.50;99.90;;;;;;5017887;28;20765;-74
2023/01/19 01:13:24;;;;;;;22.00;6.40;;;-3.50;99.90;;;;;;5019047;28;21029;-74
2023/01/19 01:15:54;;;;;;;12.30;6.10;;;-3.50;99.90;;;;;;5026345;28;20642;-75
2023/01/19 01:18:20;;;;;;;10.30;5.30;;;-3.50;99.90;;;;;;5017547;28;20246;-74
2023/01/19 01:20:46;;;;;;;10.97;5.90;;;-3.50;99.90;;;;;;5019524;28;20418;-74
2023/01/19 01:23:12;;;;;;;14.10;5.77;;;-3.50;99.90;;;;;;5023073;28;20932;-74
2023/01/19 01:25:38;;;;;;;11.90;6.13;;;-3.50;99.90;;;;;;5023057;28;20186;-74
2023/01/19 01:28:07;;;;;;;18.37;7.00;;;-3.40;99.90;;;;;;5016515;28;20787;-75
2023/01/19 01:30:34;;;;;;;12.83;5.43;;;-3.40;99.90;;;;;;5024382;28;20488;-74
2023/01/19 01:32:59;;;;;;;12.50;5.10;;;-3.40;99.90;;;;;;5018016;28;20464;-74
2023/01/19 01:35:25;;;;;;;9.60;5.10;;;-3.40;99.90;;;;;;5028324;28;20780;-74
2023/01/19 01:37:51;;;;;;;11.77;5.37;;;-3.40;99.90;;;;;;5031897;28;20195;-74
2023/01/19 01:40:17;;;;;;;11.10;4.97;;;-3.40;99.90;;;;;;5028208;28;20285;-75
2023/01/19 01:42:44;;;;;;;10.97;5.73;;;-3.50;99.90;;;;;;5019032;28;20607;-74
2023/01/19 01:45:35;;;;;;;10.30;4.63;;;-3.40;99.90;;;;;;5036636;28;20436;-74
2023/01/19 01:48:26;;;;;;;11.77;5.47;;;-3.40;99.90;;;;;;5033420;28;20504;-74
2023/01/19 01:51:24;;;;;;;12.83;5.63;;;-3.40;99.90;;;;;;5032681;28;20461;-74
2023/01/19 01:53:59;;;;;;;7.60;4.70;;;-3.40;99.90;;;;;;5004100;28;20532;-74
2023/01/19 01:56:31;;;;;;;15.20;5.00;;;-3.50;99.90;;;;;;5022206;28;20421;-74
2023/01/19 01:58:57;;;;;;;17.53;5.83;;;-3.50;99.90;;;;;;5023223;28;20413;-74
2023/01/19 02:04:07;;;;;;;9.37;5.20;;;-3.40;99.90;;;;;;5025582;28;20420;-74
2023/01/19 02:14:47;;;;;;;12.57;5.53;;;-3.40;99.90;;;;;;5020565;28;20503;-74
2023/01/19 02:17:13;;;;;;;7.60;5.20;;;-3.50;99.90;;;;;;5022642;28;20469;-74
2023/01/19 02:19:41;;;;;;;10.27;5.47;;;-3.50;99.90;;;;;;5025520;28;20205;-74
2023/01/19 02:22:37;;;;;;;12.30;5.20;;;-3.50;99.90;;;;;;5010422;28;20203;-74
2023/01/19 02:25:04;;;;;;;9.70;4.43;;;-3.50;99.90;;;;;;5019460;28;20549;-74
2023/01/19 02:27:31;;;;;;;13.80;6.30;;;-3.50;99.90;;;;;;5021347;28;20426;-74
2023/01/19 02:29:57;;;;;;;6.23;4.20;;;-3.50;99.90;;;;;;5015108;28;20433;-74
2023/01/19 02:32:23;;;;;;;10.60;5.90;;;-3.50;99.90;;;;;;5024426;28;20518;-74
2023/01/19 02:34:49;;;;;;;12.80;5.63;;;-3.60;99.90;;;;;;5017543;28;20791;-74
2023/01/19 02:37:17;;;;;;;10.60;5.20;;;-3.60;99.90;;;;;;5018551;28;20176;-74
2023/01/19 02:39:55;;;;;;;13.10;5.63;;;-3.60;99.90;;;;;;5018738;28;20217;-74
2023/01/19 02:42:30;;;;;;;9.37;5.23;;;-3.60;99.90;;;;;;5016182;28;20429;-74
2023/01/19 02:44:56;;;;;;;13.77;5.30;;;-3.60;99.90;;;;;;5005697;28;20418;-74
2023/01/19 02:47:22;;;;;;;10.90;5.10;;;-3.70;99.90;;;;;;5015489;28;20788;-74
2023/01/19 02:49:58;;;;;;;14.33;5.50;;;-3.70;99.90;;;;;;5013206;28;20229;-74
2023/01/19 02:52:25;;;;;;;13.63;5.50;;;-3.70;99.90;;;;;;5012584;28;20471;-74
2023/01/19 02:54:56;;;;;;;12.37;5.60;;;-3.70;99.90;;;;;;5012660;28;20441;-74
2023/01/19 02:57:31;;;;;;;12.83;5.50;;;-3.80;99.90;;;;;;4996755;28;20970;-74
2023/01/19 03:00:24;;;;;;;7.77;4.83;;;-3.80;99.90;;;;;;5013427;28;20425;-74
2023/01/19 03:03:20;;;;;;;13.03;5.80;;;-3.80;99.90;;;;;;5009631;28;20437;-74
2023/01/19 03:05:55;;;;;;;10.77;4.60;;;-3.80;99.90;;;;;;4993030;28;20430;-74
2023/01/19 03:09:11;;;;;;;12.20;5.20;;;-3.90;99.90;;;;;;5008379;28;20433;-74
2023/01/19 03:11:41;;;;;;;12.97;5.93;;;-3.90;99.90;;;;;;5009986;28;20430;-74
2023/01/19 03:14:14;;;;;;;12.10;6.23;;;-3.90;99.90;;;;;;4997888;28;20424;-74
2023/01/19 03:16:52;;;;;;;11.60;5.20;;;-3.90;99.90;;;;;;4996502;28;20421;-74
2023/01/19 03:19:26;;;;;;;11.13;5.20;;;-3.80;99.90;;;;;;5000367;28;20813;-74
2023/01/19 03:21:58;;;;;;;9.23;4.60;;;-3.80;99.90;;;;;;5013775;28;20772;-74
2023/01/19 03:24:27;;;;;;;9.70;5.60;;;-3.90;99.90;;;;;;5012273;28;20418;-74
2023/01/19 03:27:02;;;;;;;12.60;4.97;;;-3.90;99.90;;;;;;5010283;28;20434;-74
2023/01/19 03:29:33;;;;;;;13.27;5.97;;;-3.90;99.90;;;;;;5005906;28;20437;-74
2023/01/19 03:32:04;;;;;;;9.60;5.97;;;-3.90;99.90;;;;;;5012323;28;20950;-74
2023/01/19 03:34:30;;;;;;;10.80;5.50;;;-3.90;99.90;;;;;;5012040;28;20513;-74
2023/01/19 03:36:59;;;;;;;10.80;5.27;;;-4.00;99.90;;;;;;5006970;28;20422;-74
2023/01/19 03:39:26;;;;;;;13.50;7.03;;;-3.90;99.90;;;;;;5004291;28;20425;-74
2023/01/19 03:42:04;;;;;;;9.43;5.43;;;-3.90;99.90;;;;;;5011096;28;20433;-74
2023/01/19 03:44:33;;;;;;;15.10;7.37;;;-3.90;99.90;;;;;;5007042;28;20421;-74
2023/01/19 03:46:59;;;;;;;11.73;6.10;;;-4.00;99.90;;;;;;4998978;28;20932;-74
2023/01/19 03:49:25;;;;;;;14.83;6.50;;;-4.10;99.90;;;;;;5010725;28;20433;-74
2023/01/19 03:51:55;;;;;;;16.37;7.13;;;-4.20;99.90;;;;;;4992053;28;20949;-74
2023/01/19 03:54:21;;;;;;;15.90;6.70;;;-4.20;99.90;;;;;;4991909;28;20419;-74
2023/01/19 03:56:46;;;;;;;14.17;6.13;;;-4.20;99.90;;;;;;5000376;28;20972;-74
2023/01/19 03:59:16;;;;;;;12.10;5.50;;;-4.10;99.90;;;;;;5013851;28;20190;-74
2023/01/19 04:01:41;;;;;;;15.10;6.73;;;-4.20;99.90;;;;;;5019920;28;20281;-74
2023/01/19 04:04:07;;;;;;;11.67;5.67;;;-4.10;99.90;;;;;;4999856;28;20501;-74
2023/01/19 04:06:33;;;;;;;13.93;6.53;;;-4.10;99.90;;;;;;5000377;28;20186;-74
2023/01/19 04:08:58;;;;;;;15.67;7.17;;;-4.10;99.90;;;;;;5011532;28;20214;-74
2023/01/19 04:11:24;;;;;;;13.93;7.60;;;-4.10;99.90;;;;;;5003242;28;20184;-74
2023/01/19 04:13:50;;;;;;;15.70;8.00;;;-4.00;99.90;;;;;;5005590;28;20231;-74
2023/01/19 04:16:19;;;;;;;17.07;7.60;;;-3.90;99.90;;;;;;5011362;28;20628;-74
2023/01/19 04:18:44;;;;;;;13.13;6.50;;;-3.90;99.90;;;;;;5011200;28;20418;-74
2023/01/19 04:21:10;;;;;;;18.10;7.87;;;-3.80;99.90;;;;;;5010869;28;20416;-74
2023/01/19 04:23:36;;;;;;;12.43;6.80;;;-3.70;99.90;;;;;;5000567;28;20198;-74
2023/01/19 04:26:04;;;;;;;10.10;5.30;;;-3.70;99.90;;;;;;5010599;28;20213;-74
2023/01/19 04:28:32;;;;;;;16.33;7.10;;;-3.60;99.90;;;;;;5010973;28;20226;-74
2023/01/19 04:30:58;;;;;;;22.50;6.67;;;-3.60;99.90;;;;;;5025136;28;20473;-74
2023/01/19 04:33:24;;;;;;;11.97;6.03;;;-3.50;99.90;;;;;;5010389;28;20966;-74
2023/01/19 04:35:51;;;;;;;13.40;6.17;;;-3.50;99.90;;;;;;5011056;28;20806;-74
2023/01/19 04:38:18;;;;;;;13.63;6.37;;;-3.40;99.90;;;;;;4996453;28;20494;-74
2023/01/19 04:40:44;;;;;;;10.20;6.00;;;-3.40;99.90;;;;;;5010334;28;20417;-74
2023/01/19 04:43:10;;;;;;;10.47;6.00;;;-3.50;99.90;;;;;;5007272;28;20434;-74
2023/01/19 04:45:36;;;;;;;13.90;4.97;;;-3.50;99.90;;;;;;4997222;28;20423;-74
2023/01/19 04:48:05;;;;;;;13.77;5.33;;;-3.50;99.90;;;;;;5006550;28;20493;-74
2023/01/19 04:50:31;;;;;;;14.10;6.20;;;-3.50;99.90;;;;;;5007029;28;20442;-74
2023/01/19 04:52:57;;;;;;;13.37;5.43;;;-3.50;99.90;;;;;;5004479;28;20469;-74
2023/01/19 04:55:23;;;;;;;10.73;6.20;;;-3.50;99.90;;;;;;5003545;28;20992;-74
2023/01/19 04:57:48;;;;;;;10.70;5.27;;;-3.50;99.90;;;;;;5008710;28;20552;-74
2023/01/19 05:00:15;;;;;;;13.50;5.60;;;-3.50;99.90;;;;;;5016129;28;20180;-74
2023/01/19 05:02:44;;;;;;;10.43;5.67;;;-3.60;99.90;;;;;;5018033;28;20210;-74
2023/01/19 05:05:10;;;;;;;11.83;5.40;;;-3.70;99.90;;;;;;4991307;28;20554;-74
2023/01/19 05:07:36;;;;;;;11.70;5.70;;;-3.70;99.90;;;;;;5004589;28;20509;-74
2023/01/19 05:10:02;;;;;;;9.80;5.73;;;-3.80;99.90;;;;;;5003738;28;20419;-74
2023/01/19 05:12:27;;;;;;;16.20;5.20;;;-3.80;99.90;;;;;;5007319;28;20281;-74
2023/01/19 05:14:53;;;;;;;7.77;4.27;;;-3.80;99.90;;;;;;5002649;28;20510;-74
2023/01/19 05:17:19;;;;;;;12.73;6.10;;;-3.80;99.90;;;;;;5003125;28;20187;-74
2023/01/19 05:19:44;;;;;;;7.00;4.43;;;-3.90;99.90;;;;;;5009885;28;20229;-74
2023/01/19 05:22:10;;;;;;;10.50;5.37;;;-3.90;99.90;;;;;;5016642;28;20333;-74
2023/01/19 05:24:35;;;;;;;15.27;6.07;;;-3.90;99.90;;;;;;5008128;28;20183;-74
2023/01/19 05:27:01;;;;;;;7.73;4.23;;;-3.90;99.90;;;;;;5007839;28;20609;-74
2023/01/19 05:29:27;;;;;;;8.90;5.33;;;-4.10;99.90;;;;;;5002245;28;21101;-74
2023/01/19 05:31:52;;;;;;;8.83;4.87;;;-4.00;99.90;;;;;;5004358;28;20183;-74
2023/01/19 05:34:18;;;;;;;11.20;6.27;;;-4.10;99.90;;;;;;5009861;28;20318;-74
2023/01/19 05:36:43;;;;;;;11.63;5.83;;;-4.10;99.90;;;;;;5010486;28;20667;-74
2023/01/19 05:39:09;;;;;;;13.67;5.00;;;-4.10;99.90;;;;;;4997238;28;20180;-74
2023/01/19 05:41:35;;;;;;;9.47;4.70;;;-4.00;99.90;;;;;;4994511;28;20527;-74
2023/01/19 05:44:00;;;;;;;13.83;5.80;;;-4.00;99.90;;;;;;5002704;28;20211;-74
2023/01/19 05:46:26;;;;;;;14.03;7.27;;;-4.00;99.90;;;;;;5011787;28;20194;-74
2023/01/19 05:48:52;;;;;;;9.77;5.47;;;-4.00;99.90;;;;;;5013440;28;20194;-74
2023/01/19 05:51:17;;;;;;;11.20;5.50;;;-3.90;99.90;;;;;;4994401;28;20215;-74
2023/01/19 05:53:43;;;;;;;13.03;5.37;;;-4.00;99.90;;;;;;5006707;28;20211;-74
2023/01/19 05:56:09;;;;;;;12.93;6.60;;;-4.00;99.90;;;;;;5000465;28;20183;-74
2023/01/19 05:58:38;;;;;;;10.63;5.03;;;-4.00;99.90;;;;;;5013941;28;20680;-74
2023/01/19 06:01:08;;;;;;;12.23;5.73;;;-3.90;99.90;;;;;;5021208;28;20468;-74
2023/01/19 06:03:34;;;;;;;8.50;5.00;;;-4.00;99.90;;;;;;5011640;28;20867;-74
2023/01/19 06:06:01;;;;;;;9.83;6.63;;;-4.00;99.90;;;;;;4993885;28;20465;-74
2023/01/19 06:08:27;;;;;;;15.40;7.13;;;-4.00;99.90;;;;;;4993834;28;20426;-74
2023/01/19 06:10:53;;;;;;;13.57;7.10;;;-4.00;99.90;;;;;;5001337;28;20430;-74
2023/01/19 06:13:19;;;;;;;12.80;5.43;;;-4.10;99.90;;;;;;5005565;28;20456;-74
2023/01/19 06:15:45;;;;;;;13.77;4.90;;;-4.10;99.90;;;;;;5008125;28;20576;-74
2023/01/19 06:18:11;;;;;;;8.23;4.90;;;-4.20;99.90;;;;;;5011330;28;20821;-74
2023/01/19 06:20:37;;;;;;;16.60;5.83;;;-4.20;99.90;;;;;;5007357;28;20224;-74
2023/01/19 06:23:03;;;;;;;9.97;5.20;;;-4.20;99.90;;;;;;5013866;28;20414;-74
2023/01/19 06:25:28;;;;;;;10.13;4.30;;;-4.20;99.90;;;;;;5013303;28;20194;-74
2023/01/19 06:27:54;;;;;;;5.90;2.50;;;-4.20;99.90;;;;;;5013220;28;20253;-74
2023/01/19 06:30:20;;;;;;;10.57;3.90;;;-4.20;99.90;;;;;;5004124;28;20608;-74
2023/01/19 06:32:46;;;;;;;8.57;4.77;;;-4.20;99.90;;;;;;5005589;28;20218;-74
2023/01/19 06:35:12;;;;;;;7.43;3.77;;;-4.20;99.90;;;;;;5001913;28;20460;-74
2023/01/19 06:37:38;;;;;;;7.13;4.17;;;-4.20;99.90;;;;;;5010343;28;20444;-74
2023/01/19 06:40:04;;;;;;;8.00;4.97;;;-4.20;99.90;;;;;;5006769;28;20411;-75
2023/01/19 06:42:30;;;;;;;9.70;4.27;;;-4.10;99.90;;;;;;4998188;28;20196;-75
2023/01/19 06:44:55;;;;;;;8.50;4.00;;;-4.20;99.90;;;;;;5005891;28;20418;-74
2023/01/19 06:47:21;;;;;;;7.03;3.60;;;-4.10;99.90;;;;;;4999085;28;20254;-75
2023/01/19 06:49:47;;;;;;;8.33;4.27;;;-4.20;99.90;;;;;;5012846;28;20299;-75
2023/01/19 06:52:15;;;;;;;8.70;4.47;;;-4.20;99.90;;;;;;4999246;28;20191;-74
2023/01/19 06:54:42;;;;;;;9.27;4.67;;;-4.20;99.90;;;;;;5007631;28;20909;-75
2023/01/19 06:57:08;;;;;;;6.60;4.00;;;-4.20;99.90;;;;;;5010888;28;20410;-71
2023/01/19 06:59:33;;;;;;;8.27;4.53;;;-4.20;99.90;;;;;;5017100;28;20908;-67
2023/01/19 07:01:59;;;;;;;7.50;4.37;;;-4.20;99.90;;;;;;5023444;28;21049;-71
2023/01/19 07:04:25;;;;;;;6.00;4.47;;;-4.20;99.90;;;;;;4999564;28;20179;-74
2023/01/19 07:06:51;;;;;;;8.53;5.03;;;-4.10;99.90;;;;;;5000156;28;20175;-74
2023/01/19 07:09:19;;;;;;;9.03;4.50;;;-4.20;99.90;;;;;;5006287;28;20419;-74
2023/01/19 07:11:45;;;;;;;8.90;5.50;;;-4.20;99.90;;;;;;5001683;28;20178;-74
2023/01/19 07:14:10;;;;;;;7.23;4.60;;;-4.20;99.90;;;;;;5012686;28;20831;-73
2023/01/19 07:16:36;;;;;;;8.50;4.50;;;-4.20;99.90;;;;;;5018051;28;20904;-74
2023/01/19 07:19:02;;;;;;;7.27;4.30;;;-4.20;99.90;;;;;;5018905;28;20183;-74
2023/01/19 07:21:28;;;;;;;8.93;5.33;;;-4.30;99.90;;;;;;4997113;28;20210;-74
2023/01/19 07:23:54;;;;;;;10.60;5.80;;;-4.30;99.90;;;;;;4992270;28;20466;-74
2023/01/19 07:26:20;;;;;;;8.40;4.83;;;-4.30;99.90;;;;;;5015025;28;20182;-75
2023/01/19 07:28:47;;;;;;;10.03;4.80;;;-4.30;99.90;;;;;;5028662;28;20188;-75
2023/01/19 07:31:14;;;;;;;9.57;3.30;;;-4.30;99.90;;;;;;5024640;28;20809;-75
2023/01/19 07:33:39;;;;;;;6.40;3.40;;;-4.30;99.90;;;;;;5012760;28;20468;-74
2023/01/19 07:36:05;;;;;;;12.23;4.50;;;-4.40;99.90;;;;;;5024300;28;21495;-75
2023/01/19 07:38:31;;;;;;;10.33;5.77;;;-4.40;99.90;;;;;;5026888;28;20175;-74
2023/01/19 07:41:01;;;;;;;8.83;5.70;;;-4.30;99.90;;;;;;5016405;28;20495;-74
2023/01/19 07:43:27;;;;;;;11.33;4.70;;;-4.30;99.90;;;;;;5003767;28;20624;-74
2023/01/19 07:45:56;;;;;;;8.40;4.33;;;-4.20;99.90;;;;;;5012735;28;20433;-74
2023/01/19 07:48:21;;;;;;;6.23;3.50;;;-4.20;99.90;;;;;;5021734;28;20193;-75
2023/01/19 07:50:47;;;;;;;8.33;4.30;;;-4.20;99.90;;;;;;5025641;28;20504;-76
2023/01/19 07:53:13;;;;;;;6.50;4.33;;;-4.10;99.90;;;;;;5013186;28;20207;-77
2023/01/19 07:55:39;;;;;;;10.10;4.73;;;-4.20;99.90;;;;;;5012771;28;20687;-77
2023/01/19 07:58:06;;;;;;;11.40;4.53;;;-4.20;99.90;;;;;;5012632;28;20217;-74
2023/01/19 08:00:33;;;;;;;7.30;4.17;;;-4.10;99.90;;;;;;5012589;28;20433;-74
2023/01/19 08:03:00;;;;;;;9.07;4.53;;;-4.10;99.90;;;;;;5024449;28;20437;-74
2023/01/19 08:05:29;;;;;;;5.10;3.50;;;-4.20;99.90;;;;;;5018971;28;20517;-74
2023/01/19 08:07:56;;;;;;;10.00;4.33;;;-4.10;99.90;;;;;;5012040;28;20418;-74
2023/01/19 08:10:25;;;;;;;7.47;4.03;;;-4.00;99.90;;;;;;5012109;28;20426;-74
2023/01/19 08:12:54;;;;;;;7.27;3.23;;;-4.00;99.90;;;;;;5009002;28;20845;-74
2023/01/19 08:15:22;;;;;;;1.00;0.40;;;-3.90;99.90;;;;;;5008317;28;20424;-74
2023/01/19 08:17:59;;;;;;;5.50;2.97;;;-3.90;99.90;;;;;;5011704;28;20521;-74
2023/01/19 08:20:26;;;;;;;1.43;0.53;;;-3.80;99.90;;;;;;5000408;28;20401;-74
2023/01/19 08:22:58;;;;;;;2.00;1.23;;;-3.70;99.90;;;;;;5014081;28;20441;-74
2023/01/19 08:25:25;;;;;;;1.00;0.40;;;-3.70;99.90;;;;;;5009450;28;20409;-74
2023/01/19 08:27:53;;;;;;;1.23;0.87;;;-3.70;99.90;;;;;;5031345;28;20451;-74
2023/01/19 08:30:19;;;;;;;9.37;4.43;;;-3.60;99.90;;;;;;5031205;28;20841;-74
2023/01/19 08:32:44;;;;;;;4.50;3.10;;;-3.40;99.90;;;;;;5021309;28;20458;-74
2023/01/19 08:35:10;;;;;;;5.03;3.47;;;-3.20;99.90;;;;;;5011540;28;20655;-73
2023/01/19 08:37:36;;;;;;;8.10;3.93;;;-3.00;99.90;;;;;;5014326;28;20187;-74
2023/01/19 08:40:02;;;;;;;9.83;3.83;;;-2.80;99.90;;;;;;5019134;28;20186;-74
2023/01/19 08:42:27;;;;;;;7.77;3.83;;;-2.60;99.90;;;;;;5016128;28;20187;-73
2023/01/19 08:44:53;;;;;;;7.93;4.03;;;-2.60;99.90;;;;;;5018243;28;20450;-73
2023/01/19 08:47:18;;;;;;;8.93;3.30;;;-2.50;99.90;;;;;;5006319;28;20677;-73
2023/01/19 08:49:44;;;;;;;5.83;2.93;;;-2.50;99.90;;;;;;5000383;28;20302;-74
2023/01/19 08:52:09;;;;;;;8.40;3.20;;;-2.50;99.90;;;;;;5028910;28;20300;-74
2023/01/19 08:54:36;;;;;;;8.87;3.40;;;-2.60;99.90;;;;;;5023857;28;20538;-73
2023/01/19 08:57:01;;;;;;;4.87;3.30;;;-2.60;99.90;;;;;;5031564;28;20191;-73
2023/01/19 08:59:27;;;;;;;11.20;3.70;;;-2.50;99.90;;;;;;5028834;28;20425;-73
2023/01/19 09:01:52;;;;;;;4.87;3.07;;;-2.30;99.90;;;;;;5021858;28;20187;-73
2023/01/19 09:04:18;;;;;;;6.40;3.60;;;-2.10;99.90;;;;;;5007844;28;20172;-74
2023/01/19 09:06:43;;;;;;;5.73;3.70;;;-2.00;99.90;;;;;;5026590;28;20289;-73
2023/01/19 09:09:09;;;;;;;6.43;3.63;;;-1.80;99.90;;;;;;5031168;28;20183;-73
2023/01/19 09:11:35;;;;;;;9.77;3.43;;;-1.70;99.90;;;;;;5020838;28;20178;-73
2023/01/19 09:14:00;;;;;;;6.17;3.50;;;-1.50;99.90;;;;;;5018730;28;20237;-77
2023/01/19 09:16:27;;;;;;;4.40;2.87;;;-1.30;99.90;;;;;;5010789;28;20183;-73
2023/01/19 09:18:53;;;;;;;14.63;3.07;;;-1.30;99.90;;;;;;5023718;28;20491;-70
2023/01/19 09:21:18;;;;;;;5.00;2.60;;;-1.40;99.90;;;;;;5013662;28;20418;-75
2023/01/19 09:23:44;;;;;;;6.70;2.60;;;-1.30;99.90;;;;;;5027664;28;20218;-72
2023/01/19 09:26:10;;;;;;;5.00;2.80;;;-1.40;99.90;;;;;;5027544;28;20226;-73
2023/01/19 09:28:36;;;;;;;3.93;2.10;;;-1.40;99.90;;;;;;5023603;28;20228;-73
2023/01/19 09:31:06;;;;;;;6.63;3.90;;;-1.40;99.90;;;;;;5010740;28;20538;-73
2023/01/19 09:33:33;;;;;;;5.90;3.40;;;-1.40;99.90;;;;;;5020045;28;20458;-73
2023/01/19 09:35:58;;;;;;;4.00;2.33;;;-1.50;99.90;;;;;;5015831;28;20448;-73
2023/01/19 09:38:25;;;;;;;11.13;3.70;;;-1.60;99.90;;;;;;5019396;28;20429;-73
2023/01/19 09:40:53;;;;;;;5.47;3.00;;;-1.40;99.90;;;;;;5025509;28;20189;-73
2023/01/19 09:43:19;;;;;;;5.30;2.90;;;-1.20;99.90;;;;;;5016679;28;20430;-73
2023/01/19 09:45:50;;;;;;;3.13;1.90;;;-1.10;99.90;;;;;;5015801;28;20750;-74
2023/01/19 09:48:44;;;;;;;5.43;2.67;;;-1.00;99.90;;;;;;5016853;28;20187;-74
2023/01/19 09:51:18;;;;;;;7.20;2.93;;;-1.00;99.90;;;;;;5022510;28;20427;-73
2023/01/19 09:54:03;;;;;;;4.73;2.43;;;-0.80;99.90;;;;;;5022995;28;20898;-73
2023/01/19 09:56:30;;;;;;;4.13;2.10;;;-0.80;99.90;;;;;;5014121;28;20402;-73
2023/01/19 09:58:57;;;;;;;4.40;2.33;;;-0.90;99.90;;;;;;5019098;28;20758;-73
2023/01/19 10:01:39;;;;;;;8.63;3.23;;;-0.80;99.90;;;;;;5021367;28;20812;-73
2023/01/19 10:04:25;;;;;;;11.30;3.63;;;-0.70;99.90;;;;;;5009276;28;20414;-74
2023/01/19 10:07:02;;;;;;;4.00;2.70;;;-0.70;99.90;;;;;;5014319;28;20437;-73
2023/01/19 10:09:35;;;;;;;5.97;3.23;;;-0.80;99.90;;;;;;5022796;28;20528;-73
2023/01/19 10:12:15;;;;;;;4.83;2.97;;;-0.90;99.90;;;;;;5007730;28;20794;-74
2023/01/19 10:15:02;;;;;;;5.43;2.70;;;-1.10;99.90;;;;;;5032133;28;20421;-70
2023/01/19 10:18:06;;;;;;;14.07;6.40;;;-1.30;99.90;;;;;;5013965;28;20413;-73
2023/01/19 10:20:38;;;;;;;13.17;5.13;;;-1.30;99.90;;;;;;5008962;28;20434;-73
2023/01/19 10:23:34;;;;;;;6.50;2.60;;;-1.40;99.90;;;;;;5027853;28;20912;-73
2023/01/19 10:26:06;;;;;;;5.03;3.30;;;-1.40;99.90;;;;;;4993989;28;20453;-73
2023/01/19 10:28:32;;;;;;;6.90;3.23;;;-1.40;99.90;;;;;;5031207;28;20492;-73
2023/01/19 10:30:59;;;;;;;5.57;3.00;;;-1.40;99.90;;;;;;5025332;28;20625;-73
2023/01/19 10:33:24;;;;;;;7.37;3.40;;;-1.40;99.90;;;;;;5013295;28;20508;-74
2023/01/19 10:35:50;;;;;;;9.83;4.53;;;-1.30;99.90;;;;;;5013996;28;20414;-73
2023/01/19 10:38:20;;;;;;;9.30;5.07;;;-1.20;99.90;;;;;;5014127;28;20259;-73
2023/01/19 10:41:08;;;;;;;7.53;2.80;;;-1.20;99.90;;;;;;5028348;28;20177;-74
2023/01/19 10:43:40;;;;;;;6.83;3.77;;;-1.10;99.90;;;;;;5011144;28;20499;-73
2023/01/19 10:46:16;;;;;;;7.53;2.33;;;-1.10;99.90;;;;;;5023632;28;20468;-74
2023/01/19 10:48:42;;;;;;;7.13;3.60;;;-1.10;99.90;;;;;;5014245;28;20421;-74
2023/01/19 10:51:09;;;;;;;7.87;3.97;;;-1.00;99.90;;;;;;5028223;28;20417;-74
2023/01/19 10:53:36;;;;;;;8.90;3.53;;;-0.90;99.90;;;;;;5018978;28;20461;-74
2023/01/19 10:56:09;;;;;;;7.47;3.53;;;-0.80;99.90;;;;;;5033411;28;20416;-73
2023/01/19 10:58:35;;;;;;;4.90;3.13;;;-0.80;99.90;;;;;;5033263;28;20444;-74
2023/01/19 11:01:26;;;;;;;5.93;2.47;;;-0.80;99.90;;;;;;5030446;28;20520;-74
2023/01/19 11:03:53;;;;;;;5.93;3.80;;;-0.80;99.90;;;;;;5013195;28;20199;-73
2023/01/19 11:06:19;;;;;;;5.27;2.70;;;-0.70;99.90;;;;;;5017790;28;20917;-74
2023/01/19 11:08:50;;;;;;;6.63;2.97;;;-0.60;99.90;;;;;;5019956;28;20422;-74
2023/01/19 11:11:16;;;;;;;4.37;2.17;;;-0.50;99.90;;;;;;5016463;28;20192;-74
2023/01/19 11:13:42;;;;;;;3.43;2.50;;;-0.40;99.90;;;;;;5026221;28;20454;-73
2023/01/19 11:16:29;;;;;;;7.20;2.60;;;-0.20;99.90;;;;;;5015980;28;20821;-73
2023/01/19 11:18:56;;;;;;;5.43;2.73;;;0.30;99.90;;;;;;5009757;28;20409;-73
2023/01/19 11:21:25;;;;;;;6.17;2.90;;;0.60;99.90;;;;;;5015148;28;20761;-73
2023/01/19 11:24:04;;;;;;;6.43;2.77;;;0.90;99.90;;;;;;5022515;28;20509;-74
2023/01/19 11:26:53;;;;;;;3.70;2.37;;;0.80;99.90;;;;;;5000993;28;20418;-73
2023/01/19 11:29:24;;;;;;;4.33;2.97;;;0.80;99.90;;;;;;4996613;28;20426;-74
2023/01/19 11:31:51;;;;;;;4.50;2.70;;;0.80;99.90;;;;;;5023071;28;20417;-74
2023/01/19 11:34:33;;;;;;;7.87;3.33;;;0.80;99.90;;;;;;5014079;28;20456;-74
2023/01/19 11:37:03;;;;;;;5.87;2.23;;;0.70;99.90;;;;;;5024284;28;20452;-73
2023/01/19 11:39:43;;;;;;;3.47;2.40;;;0.50;99.90;;;;;;5016795;28;20417;-73
2023/01/19 11:42:11;;;;;;;5.30;3.00;;;0.60;99.90;;;;;;5013215;28;20794;-74
2023/01/19 11:44:54;;;;;;;6.40;2.73;;;0.70;99.90;;;;;;5016172;28;20871;-74
2023/01/19 11:47:41;;;;;;;4.73;2.37;;;0.90;99.90;;;;;;5015126;28;20421;-74
2023/01/19 11:50:21;;;;;;;5.90;2.40;;;0.80;99.90;;;;;;5017938;28;20406;-73
2023/01/19 11:53:05;;;;;;;5.93;3.17;;;0.70;99.90;;;;;;5020354;28;20536;-72
2023/01/19 11:55:45;;;;;;;7.00;3.30;;;0.70;99.90;;;;;;5028483;28;20803;-74
2023/01/19 11:58:16;;;;;;;6.10;2.13;;;0.60;99.90;;;;;;5014568;28;20405;-71
2023/01/19 12:00:47;;;;;;;3.93;2.60;;;0.70;99.90;;;;;;5017051;28;20838;-73
2023/01/19 12:03:19;;;;;;;5.70;2.73;;;0.80;99.90;;;;;;4992279;28;20434;-74
2023/01/19 12:05:48;;;;;;;5.70;2.60;;;0.70;99.90;;;;;;5005142;28;20433;-73
2023/01/19 12:08:32;;;;;;;7.53;3.00;;;0.60;99.90;;;;;;5012244;28;20426;-73
2023/01/19 12:11:00;;;;;;;9.00;3.13;;;0.70;99.90;;;;;;5012266;28;20406;-73
2023/01/19 12:13:26;;;;;;;5.17;2.70;;;0.80;99.90;;;;;;5010661;28;20480;-73
2023/01/19 12:16:06;;;;;;;5.83;2.00;;;0.80;99.90;;;;;;5007848;28;20418;-73
2023/01/19 12:18:37;;;;;;;5.57;3.13;;;0.80;99.90;;;;;;5008817;28;20428;-73
2023/01/19 12:21:03;;;;;;;11.70;2.80;;;0.90;99.90;;;;;;5012664;28;20426;-73
2023/01/19 12:24:00;;;;;;;6.60;3.07;;;0.90;99.90;;;;;;5019160;28;20452;-73
2023/01/19 12:26:37;;;;;;;8.87;2.80;;;0.80;99.90;;;;;;5009410;28;20163;-74
2023/01/19 12:29:17;;;;;;;6.70;2.77;;;0.80;99.90;;;;;;5011948;28;20414;-73
2023/01/19 12:31:43;;;;;;;5.60;2.50;;;0.90;99.90;;;;;;5011560;28;20413;-73
2023/01/19 12:34:31;;;;;;;4.10;2.50;;;0.90;99.90;;;;;;5012889;28;20457;-73
2023/01/19 12:37:02;;;;;;;4.97;3.07;;;0.80;99.90;;;;;;5015592;28;20873;-73
2023/01/19 12:39:28;;;;;;;7.53;2.50;;;0.80;99.90;;;;;;5017523;28;20417;-73
2023/01/19 12:42:13;;;;;;;5.10;2.47;;;0.80;99.90;;;;;;5011887;28;20508;-73
2023/01/19 12:44:40;;;;;;;6.80;2.37;;;0.70;99.90;;;;;;5013803;28;20739;-73
2023/01/19 12:47:14;;;;;;;4.80;2.17;;;0.60;99.90;;;;;;5000552;28;20435;-73
2023/01/19 12:49:40;;;;;;;6.30;2.40;;;0.60;99.90;;;;;;4992017;28;20429;-73
2023/01/19 12:52:39;;;;;;;3.23;2.00;;;0.60;99.90;;;;;;5002810;28;20414;-73
2023/01/19 12:55:14;;;;;;;6.23;2.73;;;0.70;99.90;;;;;;4994681;28;20199;-73
2023/01/19 12:58:05;;;;;;;18.33;2.93;;;0.60;99.90;;;;;;5012266;28;20504;-73
2023/01/19 13:00:42;;;;;;;2.90;1.63;;;0.60;99.90;;;;;;5026281;28;20447;-74
2023/01/19 13:03:16;;;;;;;4.63;1.93;;;0.50;99.90;;;;;;5014626;28;20499;-73
2023/01/19 13:05:42;;;;;;;5.93;2.73;;;0.60;99.90;;;;;;5011456;28;20431;-73
2023/01/19 13:08:08;;;;;;;6.13;3.50;;;0.50;99.90;;;;;;5005639;28;20481;-73